createdAt,value
2018-11-23T00:00:37.435Z,13.03
2018-11-23T00:03:07.275Z,13.03
2018-11-23T00:05:37.167Z,15.07
2018-11-23T00:08:06.995Z,13.03
2018-11-23T00:10:36.815Z,11.47
2018-11-23T00:13:06.667Z,11.77
2018-11-23T00:15:36.430Z,13.33
2018-11-23T00:18:06.349Z,12.73
2018-11-23T00:20:36.196Z,14.33
2018-11-23T00:23:06.019Z,13.57
2018-11-23T00:25:35.805Z,12.23
2018-11-23T00:28:05.978Z,11.87
2018-11-23T00:30:35.827Z,14.60
2018-11-23T00:33:05.730Z,12.20
2018-11-23T00:35:35.543Z,13.30
2018-11-23T00:38:05.370Z,12.30
2018-11-23T00:40:35.167Z,13.10
2018-11-23T00:43:05.369Z,12.60
2018-11-23T00:45:35.746Z,12.77
2018-11-23T00:48:05.068Z,11.93
2018-11-23T00:50:34.951Z,13.67
2018-11-23T00:53:04.810Z,9.83
2018-11-23T00:55:34.905Z,14.60
2018-11-23T00:58:04.851Z,13.37
2018-11-23T01:00:35.291Z,12.90
2018-11-23T01:03:05.940Z,13.80
2018-11-23T01:05:35.782Z,12.57
2018-11-23T01:08:05.627Z,12.47
2018-11-23T01:10:35.487Z,14.83
2018-11-23T01:13:05.895Z,13.73
2018-11-23T01:15:35.924Z,12.57
2018-11-23T01:18:06.022Z,14.00
2018-11-23T01:20:35.802Z,13.37
2018-11-23T01:23:05.651Z,13.27
2018-11-23T01:25:35.511Z,11.33
2018-11-23T01:28:05.411Z,11.63
2018-11-23T01:30:35.253Z,13.53
2018-11-23T01:33:05.024Z,12.27
2018-11-23T01:35:34.876Z,11.17
2018-11-23T01:38:04.935Z,11.27
2018-11-23T01:40:34.811Z,12.43
2018-11-23T01:43:04.629Z,13.87
2018-11-23T01:45:34.408Z,23.53
2018-11-23T01:48:04.831Z,16.27
2018-11-23T01:50:34.698Z,16.00
2018-11-23T01:53:04.673Z,18.37
2018-11-23T01:55:34.467Z,21.17
2018-11-23T01:58:04.526Z,15.83
2018-11-23T02:00:34.331Z,11.57
2018-11-23T02:03:04.197Z,12.27
2018-11-23T02:05:33.959Z,11.73
2018-11-23T02:08:03.771Z,11.23
2018-11-23T02:10:33.563Z,11.30
2018-11-23T02:13:03.507Z,11.40
2018-11-23T02:15:33.406Z,12.40
2018-11-23T02:18:03.243Z,13.07
2018-11-23T02:20:34.022Z,10.17
2018-11-23T02:23:03.907Z,12.53
2018-11-23T02:25:33.831Z,12.13
2018-11-23T02:28:03.736Z,13.47
2018-11-23T02:30:33.594Z,12.03
2018-11-23T02:33:03.576Z,12.30
2018-11-23T02:35:34.095Z,11.10
2018-11-23T02:38:04.007Z,11.97
2018-11-23T02:40:33.962Z,10.07
2018-11-23T02:43:03.823Z,12.07
2018-11-23T02:45:33.631Z,12.70
2018-11-23T02:48:03.534Z,11.07
2018-11-23T02:50:33.493Z,12.80
2018-11-23T02:53:03.423Z,11.83
2018-11-23T02:55:33.903Z,12.33
2018-11-23T02:58:03.824Z,12.77
2018-11-23T03:00:33.602Z,12.27
2018-11-23T03:03:03.523Z,12.70
2018-11-23T03:05:33.339Z,12.10
2018-11-23T03:08:03.224Z,11.70
2018-11-23T03:10:33.123Z,11.83
2018-11-23T03:13:03.035Z,10.00
2018-11-23T03:15:32.883Z,11.10
2018-11-23T03:18:02.709Z,10.53
2018-11-23T03:20:32.994Z,10.73
2018-11-23T03:23:02.855Z,13.23
2018-11-23T03:25:32.669Z,11.37
2018-11-23T03:28:02.468Z,12.00
2018-11-23T03:30:32.300Z,10.17
2018-11-23T03:33:02.175Z,14.40
2018-11-23T03:35:32.238Z,12.30
2018-11-23T03:38:02.107Z,13.67
2018-11-23T03:40:31.928Z,13.53
2018-11-23T03:43:01.764Z,11.60
2018-11-23T03:45:31.615Z,12.50
2018-11-23T03:48:01.403Z,13.10
2018-11-23T03:50:31.299Z,14.70
2018-11-23T03:53:01.120Z,13.33
2018-11-23T03:55:30.930Z,15.93
2018-11-23T03:58:00.740Z,13.23
2018-11-23T04:00:30.652Z,12.37
2018-11-23T04:03:00.438Z,12.97
2018-11-23T04:05:30.264Z,14.47
2018-11-23T04:08:00.098Z,14.90
2018-11-23T04:10:29.911Z,11.93
2018-11-23T04:12:59.716Z,14.17
2018-11-23T04:15:29.571Z,14.93
2018-11-23T04:17:59.443Z,12.37
2018-11-23T04:20:29.234Z,13.90
2018-11-23T04:22:59.216Z,12.73
2018-11-23T04:25:29.070Z,12.17
2018-11-23T04:27:58.918Z,12.83
2018-11-23T04:30:28.689Z,13.53
2018-11-23T04:32:58.670Z,12.93
2018-11-23T04:35:28.523Z,15.50
2018-11-23T04:37:58.511Z,12.87
2018-11-23T04:40:29.272Z,12.27
2018-11-23T04:42:59.125Z,12.13
2018-11-23T04:45:28.903Z,13.77
2018-11-23T04:47:58.739Z,13.80
2018-11-23T04:50:28.537Z,15.40
2018-11-23T04:52:58.319Z,13.03
2018-11-23T04:55:28.159Z,15.17
2018-11-23T04:57:57.951Z,15.03
2018-11-23T05:00:28.019Z,15.23
2018-11-23T05:02:57.831Z,14.50
2018-11-23T05:05:27.617Z,16.00
2018-11-23T05:07:57.647Z,13.53
2018-11-23T05:10:27.445Z,14.03
2018-11-23T05:12:57.483Z,12.23
2018-11-23T05:15:27.279Z,13.03
2018-11-23T05:17:57.134Z,15.17
2018-11-23T05:20:26.932Z,12.27
2018-11-23T05:22:56.721Z,13.07
2018-11-23T05:25:26.475Z,14.17
2018-11-23T05:27:56.330Z,13.43
2018-11-23T05:30:26.098Z,14.87
2018-11-23T05:32:55.982Z,14.07
2018-11-23T05:35:25.769Z,11.83
2018-11-23T05:37:55.651Z,13.90
2018-11-23T05:40:25.479Z,12.93
2018-11-23T05:42:55.234Z,12.70
2018-11-23T05:45:24.972Z,12.70
2018-11-23T05:47:54.733Z,13.77
2018-11-23T05:50:25.659Z,12.60
2018-11-23T05:52:55.499Z,13.40
2018-11-23T05:55:25.278Z,12.47
2018-11-23T05:57:55.112Z,11.53
2018-11-23T06:00:26.452Z,17.03
2018-11-23T06:02:56.283Z,11.97
2018-11-23T06:05:26.072Z,13.80
2018-11-23T06:07:55.881Z,14.43
2018-11-23T06:10:25.747Z,13.70
2018-11-23T06:12:55.534Z,12.90
2018-11-23T06:15:25.867Z,12.97
2018-11-23T06:17:55.650Z,12.73
2018-11-23T06:20:26.363Z,12.90
2018-11-23T06:22:56.784Z,12.87
2018-11-23T06:25:36.941Z,13.17
2018-11-23T06:28:06.843Z,15.10
2018-11-23T06:30:36.767Z,13.73
2018-11-23T06:33:17.888Z,11.33
2018-11-23T06:35:47.730Z,12.27
2018-11-23T06:38:17.550Z,12.03
2018-11-23T06:40:47.354Z,12.30
2018-11-23T06:43:17.199Z,11.00
2018-11-23T06:45:47.143Z,10.83
2018-11-23T06:48:17.028Z,16.80
2018-11-23T06:50:46.972Z,11.33
2018-11-23T06:53:16.859Z,10.37
2018-11-23T06:55:46.646Z,10.37
2018-11-23T06:58:16.453Z,10.23
2018-11-23T07:00:46.279Z,12.87
2018-11-23T07:03:16.049Z,9.97
2018-11-23T07:05:45.903Z,12.70
2018-11-23T07:08:15.691Z,10.53
2018-11-23T07:10:45.664Z,12.00
2018-11-23T07:14:39.947Z,10.50
2018-11-23T07:17:09.787Z,12.20
2018-11-23T07:19:39.629Z,10.80
2018-11-23T07:22:09.427Z,10.93
2018-11-23T07:24:39.265Z,12.43
2018-11-23T07:27:09.314Z,11.83
2018-11-23T07:29:39.191Z,11.60
2018-11-23T07:32:08.990Z,10.87
2018-11-23T07:34:39.175Z,12.90
2018-11-23T07:37:08.988Z,12.57
2018-11-23T07:39:50.088Z,14.00
2018-11-23T07:42:22.306Z,13.97
2018-11-23T07:44:52.188Z,13.20
2018-11-23T07:47:21.970Z,13.73
2018-11-23T07:49:51.812Z,11.63
2018-11-23T07:52:21.609Z,11.17
2018-11-23T07:54:51.457Z,10.20
2018-11-23T07:57:21.211Z,13.87
2018-11-23T07:59:51.132Z,11.70
2018-11-23T08:02:20.979Z,11.47
2018-11-23T08:04:50.795Z,11.87
2018-11-23T08:07:21.161Z,12.47
2018-11-23T08:09:50.423Z,11.53
2018-11-23T08:12:20.202Z,11.20
2018-11-23T08:14:50.091Z,9.97
2018-11-23T08:17:19.919Z,9.53
2018-11-23T08:19:49.755Z,12.13
2018-11-23T08:22:19.527Z,10.37
2018-11-23T08:24:49.407Z,11.03
2018-11-23T08:27:19.210Z,10.30
2018-11-23T08:29:48.993Z,10.07
2018-11-23T08:32:18.908Z,11.73
2018-11-23T08:34:48.895Z,8.80
2018-11-23T08:37:18.813Z,10.53
2018-11-23T08:39:48.654Z,10.17
2018-11-23T08:42:18.503Z,10.40
2018-11-23T08:44:48.284Z,12.03
2018-11-23T08:47:18.179Z,10.20
2018-11-23T08:49:48.035Z,11.00
2018-11-23T08:52:17.882Z,10.77
2018-11-23T08:54:47.734Z,10.23
2018-11-23T08:57:17.621Z,13.40
2018-11-23T08:59:47.353Z,9.20
2018-11-23T09:02:17.275Z,11.77
2018-11-23T09:04:47.105Z,10.47
2018-11-23T09:07:16.951Z,9.47
2018-11-23T09:09:46.720Z,10.43
2018-11-23T09:12:16.564Z,11.83
2018-11-23T09:14:46.351Z,9.17
2018-11-23T09:17:16.119Z,10.40
2018-11-23T09:19:46.112Z,10.10
2018-11-23T09:22:23.188Z,10.23
2018-11-23T09:24:45.815Z,11.87
2018-11-23T09:27:15.638Z,10.23
2018-11-23T09:29:45.475Z,10.13
2018-11-23T09:32:15.250Z,8.73
2018-11-23T09:34:45.035Z,8.97
2018-11-23T09:37:14.862Z,11.03
2018-11-23T09:39:44.731Z,8.93
2018-11-23T09:42:14.531Z,9.53
2018-11-23T09:44:44.315Z,11.57
2018-11-23T09:47:14.130Z,8.20
2018-11-23T09:49:43.894Z,9.47
2018-11-23T09:52:13.779Z,8.77
2018-11-23T09:54:43.536Z,8.10
2018-11-23T09:57:13.429Z,7.13
2018-11-23T09:59:43.268Z,9.23
2018-11-23T10:02:13.115Z,13.70
2018-11-23T10:04:42.879Z,8.53
2018-11-23T10:07:12.651Z,8.03
2018-11-23T10:09:42.402Z,8.27
2018-11-23T10:12:12.237Z,5.20
2018-11-23T10:14:42.025Z,5.90
2018-11-23T10:17:11.881Z,9.43
2018-11-23T10:19:41.735Z,7.73
2018-11-23T10:22:11.623Z,4.93
2018-11-23T10:24:41.371Z,6.23
2018-11-23T10:27:11.224Z,4.77
2018-11-23T10:29:41.015Z,6.73
2018-11-23T10:32:10.841Z,7.10
2018-11-23T10:34:40.636Z,10.30
2018-11-23T10:37:10.656Z,6.70
2018-11-23T10:39:40.495Z,10.53
2018-11-23T10:42:10.534Z,10.53
2018-11-23T10:44:40.287Z,9.23
2018-11-23T10:47:10.158Z,10.17
2018-11-23T10:49:39.911Z,7.03
2018-11-23T10:52:09.883Z,11.77
2018-11-23T10:54:39.643Z,10.00
2018-11-23T10:57:09.570Z,9.00
2018-11-23T10:59:39.850Z,10.63
2018-11-23T11:02:14.322Z,10.93
2018-11-23T11:04:49.238Z,9.67
2018-11-23T11:07:19.114Z,9.10
2018-11-23T11:09:48.859Z,8.37
2018-11-23T11:12:18.755Z,8.47
2018-11-23T11:14:48.508Z,11.13
2018-11-23T11:17:18.349Z,9.63
2018-11-23T11:19:48.107Z,7.00
2018-11-23T11:22:17.947Z,8.53
2018-11-23T11:24:47.780Z,8.90
2018-11-23T11:27:17.561Z,7.57
2018-11-23T11:29:47.371Z,9.80
2018-11-23T11:32:17.306Z,9.97
2018-11-23T11:34:47.112Z,7.80
2018-11-23T11:37:17.077Z,9.10
2018-11-23T11:39:46.823Z,10.03
2018-11-23T11:42:16.855Z,7.73
2018-11-23T11:44:46.654Z,11.03
2018-11-23T11:47:16.497Z,9.83
2018-11-23T11:49:46.326Z,11.77
2018-11-23T11:52:16.109Z,10.83
2018-11-23T11:54:45.938Z,12.67
2018-11-23T11:57:15.903Z,12.53
2018-11-23T11:59:45.748Z,13.60
2018-11-23T12:02:16.466Z,11.43
2018-11-23T12:04:46.349Z,9.87
2018-11-23T12:07:16.094Z,10.73
2018-11-23T12:09:45.958Z,11.77
2018-11-23T12:12:15.721Z,11.53
2018-11-23T12:14:45.554Z,8.67
2018-11-23T12:17:15.343Z,11.10
2018-11-23T12:19:45.456Z,8.73
2018-11-23T12:22:15.275Z,10.90
2018-11-23T12:24:45.223Z,8.17
2018-11-23T12:27:15.071Z,11.63
2018-11-23T12:29:44.847Z,10.90
2018-11-23T12:32:14.634Z,13.83
2018-11-23T12:34:44.651Z,9.53
2018-11-23T12:37:14.492Z,8.87
2018-11-23T12:39:44.522Z,8.40
2018-11-23T12:42:14.299Z,11.17
2018-11-23T12:44:44.155Z,9.87
2018-11-23T12:47:13.941Z,8.60
2018-11-23T12:49:43.774Z,8.27
2018-11-23T12:52:13.550Z,9.37
2018-11-23T12:54:43.388Z,10.27
2018-11-23T12:57:13.327Z,8.97
2018-11-23T12:59:43.051Z,7.93
2018-11-23T13:02:12.807Z,9.10
2018-11-23T13:04:42.641Z,8.37
2018-11-23T13:07:12.422Z,10.93
2018-11-23T13:09:42.258Z,8.80
2018-11-23T13:12:12.059Z,11.80
2018-11-23T13:14:41.886Z,10.07
2018-11-23T13:17:11.732Z,8.40
2018-11-23T13:19:41.506Z,7.63
2018-11-23T13:22:12.800Z,9.90
2018-11-23T13:24:43.174Z,9.23
2018-11-23T13:27:14.759Z,7.60
2018-11-23T13:29:45.558Z,7.47
2018-11-23T13:32:15.540Z,10.00
2018-11-23T13:34:45.464Z,10.10
2018-11-23T13:37:15.293Z,9.33
2018-11-23T13:39:45.179Z,11.57
2018-11-23T13:42:15.045Z,9.50
2018-11-23T13:44:44.950Z,10.37
2018-11-23T13:47:14.691Z,9.97
2018-11-23T13:49:44.659Z,9.97
2018-11-23T13:52:14.516Z,8.20
2018-11-23T13:54:44.287Z,9.57
2018-11-23T13:57:14.139Z,9.60
2018-11-23T13:59:43.939Z,8.33
2018-11-23T14:02:13.759Z,8.77
2018-11-23T14:04:43.687Z,8.37
2018-11-23T14:07:13.519Z,8.93
2018-11-23T14:09:43.270Z,9.33
2018-11-23T14:12:13.047Z,9.27
2018-11-23T14:14:42.836Z,10.47
2018-11-23T14:17:12.643Z,8.43
2018-11-23T14:19:42.428Z,14.57
2018-11-23T14:22:12.467Z,10.73
2018-11-23T14:24:42.260Z,10.63
2018-11-23T14:27:12.096Z,8.37
2018-11-23T14:29:41.862Z,12.73
2018-11-23T14:32:11.851Z,9.63
2018-11-23T14:34:41.711Z,10.30
2018-11-23T14:37:11.678Z,7.90
2018-11-23T14:39:41.427Z,9.87
2018-11-23T14:42:11.493Z,11.07
2018-11-23T14:44:41.273Z,9.80
2018-11-23T14:47:11.124Z,8.40
2018-11-23T14:49:40.911Z,8.90
2018-11-23T14:52:10.724Z,9.80
2018-11-23T14:54:42.813Z,7.37
2018-11-23T14:57:10.351Z,8.80
2018-11-23T14:59:40.149Z,10.53
2018-11-23T15:02:10.047Z,8.73
2018-11-23T15:04:39.885Z,9.27
2018-11-23T15:07:09.708Z,10.00
2018-11-23T15:09:39.499Z,9.87
2018-11-23T15:12:09.404Z,10.57
2018-11-23T15:14:39.217Z,9.57
2018-11-23T15:17:09.066Z,8.83
2018-11-23T15:19:38.843Z,9.30
2018-11-23T15:22:08.687Z,10.77
2018-11-23T15:24:38.440Z,9.23
2018-11-23T15:27:08.306Z,7.93
2018-11-23T15:29:38.095Z,11.73
2018-11-23T15:32:07.931Z,9.80
2018-11-23T15:34:37.723Z,8.00
2018-11-23T15:37:08.114Z,9.33
2018-11-23T15:39:37.864Z,9.10
2018-11-23T15:42:07.710Z,10.87
2018-11-23T15:44:37.521Z,11.53
2018-11-23T15:47:07.345Z,9.23
2018-11-23T15:49:37.145Z,7.37
2018-11-23T15:52:06.984Z,8.27
2018-11-23T15:54:36.769Z,8.50
2018-11-23T15:57:07.195Z,8.70
2018-11-23T15:59:37.174Z,10.03
2018-11-23T16:02:07.074Z,7.83
2018-11-23T16:04:39.506Z,7.67
2018-11-23T16:07:06.780Z,8.87
2018-11-23T16:09:36.565Z,9.30
2018-11-23T16:12:06.447Z,7.93
2018-11-23T16:14:36.171Z,10.20
2018-11-23T16:17:05.951Z,7.67
2018-11-23T16:19:35.676Z,7.83
2018-11-23T16:22:05.783Z,8.87
2018-11-23T16:24:35.659Z,9.47
2018-11-23T16:27:05.463Z,7.30
2018-11-23T16:29:35.195Z,9.53
2018-11-23T16:32:05.526Z,9.43
2018-11-23T16:34:35.418Z,10.47
2018-11-23T16:37:05.728Z,8.70
2018-11-23T16:39:35.527Z,11.40
2018-11-23T16:42:05.918Z,9.27
2018-11-23T16:44:35.749Z,10.43
2018-11-23T16:47:05.615Z,8.27
2018-11-23T16:49:35.576Z,9.23
2018-11-23T16:52:06.514Z,10.50
2018-11-23T16:54:36.263Z,9.43
2018-11-23T16:57:06.343Z,9.77
2018-11-23T16:59:36.172Z,8.60
2018-11-23T17:02:06.181Z,10.73
2018-11-23T17:04:36.027Z,8.17
2018-11-23T17:07:12.722Z,7.87
2018-11-23T17:09:35.807Z,8.97
2018-11-23T17:12:05.969Z,8.57
2018-11-23T17:14:35.879Z,10.23
2018-11-23T17:17:05.784Z,13.87
2018-11-23T17:19:35.706Z,22.87
2018-11-23T17:22:06.504Z,10.23
2018-11-23T17:24:36.377Z,10.53
2018-11-23T17:27:06.601Z,13.10
2018-11-23T17:29:36.396Z,10.83
2018-11-23T17:32:06.242Z,11.70
2018-11-23T17:34:36.139Z,9.33
2018-11-23T17:37:08.588Z,10.13
2018-11-23T17:39:38.407Z,7.83
2018-11-23T17:42:08.238Z,10.00
2018-11-23T17:44:38.083Z,10.00
2018-11-23T17:47:07.879Z,9.60
2018-11-23T17:49:37.668Z,10.03
2018-11-23T17:52:07.483Z,9.43
2018-11-23T17:54:37.277Z,9.40
2018-11-23T17:57:07.111Z,8.47
2018-11-23T17:59:54.487Z,8.83
2018-11-23T18:02:26.491Z,11.13
2018-11-23T18:04:56.307Z,9.80
2018-11-23T18:07:26.060Z,9.67
2018-11-23T18:09:55.830Z,9.30
2018-11-23T18:12:25.628Z,10.27
2018-11-23T18:14:55.491Z,10.73
2018-11-23T18:17:25.235Z,9.57
2018-11-23T18:19:55.074Z,12.37
2018-11-23T18:22:24.876Z,12.00
2018-11-23T18:24:54.707Z,12.03
2018-11-23T18:27:24.489Z,12.40
2018-11-23T18:29:54.332Z,14.60
2018-11-23T18:32:24.131Z,14.90
2018-11-23T18:34:53.962Z,16.30
2018-11-23T18:37:24.779Z,15.83
2018-11-23T18:39:54.539Z,15.77
2018-11-23T18:42:24.300Z,19.23
2018-11-23T18:44:54.131Z,22.33
2018-11-23T18:47:23.937Z,28.00
2018-11-23T18:49:53.759Z,25.60
2018-11-23T18:52:23.548Z,23.80
2018-11-23T18:54:53.378Z,27.30
2018-11-23T18:57:23.184Z,27.87
2018-11-23T18:59:53.006Z,28.80
2018-11-23T19:02:22.807Z,24.27
2018-11-23T19:04:52.635Z,27.03
2018-11-23T19:07:22.367Z,27.93
2018-11-23T19:09:52.164Z,26.80
2018-11-23T19:12:21.911Z,25.17
2018-11-23T19:14:51.787Z,23.03
2018-11-23T19:17:21.569Z,21.33
2018-11-23T19:19:51.408Z,22.60
2018-11-23T19:22:21.196Z,21.90
2018-11-23T19:24:50.958Z,20.50
2018-11-23T19:27:20.719Z,19.93
2018-11-23T19:29:50.563Z,20.23
2018-11-23T19:32:20.931Z,20.67
2018-11-23T19:34:50.792Z,24.30
2018-11-23T19:37:20.584Z,28.40
2018-11-23T19:39:50.411Z,27.57
2018-11-23T19:42:20.206Z,25.63
2018-11-23T19:44:50.101Z,29.70
2018-11-23T19:47:20.019Z,26.17
2018-11-23T19:49:49.876Z,24.83
2018-11-23T19:52:19.779Z,24.80
2018-11-23T19:54:49.607Z,28.70
2018-11-23T19:57:19.543Z,27.00
2018-11-23T19:59:49.361Z,30.07
2018-11-23T20:02:19.940Z,30.93
2018-11-23T20:04:48.974Z,33.03
2018-11-23T20:07:18.848Z,29.37
2018-11-23T20:09:48.683Z,31.70
2018-11-23T20:12:18.479Z,35.53
2018-11-23T20:14:48.343Z,32.27
2018-11-23T20:17:18.107Z,29.87
2018-11-23T20:19:47.951Z,30.63
2018-11-23T20:22:18.020Z,32.03
2018-11-23T20:24:47.875Z,30.93
2018-11-23T20:27:17.751Z,29.90
2018-11-23T20:29:47.595Z,32.00
2018-11-23T20:32:17.447Z,34.70
2018-11-23T20:34:47.607Z,35.70
2018-11-23T20:37:17.502Z,29.47
2018-11-23T20:39:47.714Z,32.00
2018-11-23T20:42:17.551Z,33.33
2018-11-23T20:44:47.551Z,51.13
2018-11-23T20:47:17.479Z,33.40
2018-11-23T20:49:47.342Z,32.07
2018-11-23T20:52:17.114Z,34.43
2018-11-23T20:54:46.961Z,32.63
2018-11-23T20:57:16.741Z,29.20
2018-11-23T20:59:46.507Z,28.63
2018-11-23T21:02:16.271Z,27.00
2018-11-23T21:04:46.092Z,28.23
2018-11-23T21:07:15.891Z,29.00
2018-11-23T21:09:46.779Z,27.60
2018-11-23T21:12:16.546Z,27.40
2018-11-23T21:14:46.409Z,27.57
2018-11-23T21:17:16.221Z,27.90
2018-11-23T21:19:46.147Z,28.00
2018-11-23T21:22:15.895Z,26.27
2018-11-23T21:24:45.745Z,27.33
2018-11-23T21:27:15.534Z,26.70
2018-11-23T21:29:45.355Z,24.00
2018-11-23T21:32:15.158Z,24.33
2018-11-23T21:34:45.008Z,23.10
2018-11-23T21:37:14.820Z,23.77
2018-11-23T21:39:44.675Z,22.87
2018-11-23T21:42:14.699Z,21.90
2018-11-23T21:44:44.532Z,21.83
2018-11-23T21:47:14.379Z,21.93
2018-11-23T21:49:44.183Z,20.13
2018-11-23T21:52:13.960Z,20.63
2018-11-23T21:54:43.787Z,20.40
2018-11-23T21:57:13.635Z,20.07
2018-11-23T21:59:43.411Z,20.03
2018-11-23T22:02:13.248Z,21.70
2018-11-23T22:04:43.057Z,17.93
2018-11-23T22:07:12.827Z,19.43
2018-11-23T22:09:42.664Z,16.73
2018-11-23T22:12:12.610Z,16.70
2018-11-23T22:14:42.366Z,17.87
2018-11-23T22:17:12.284Z,15.80
2018-11-23T22:19:42.039Z,14.77
2018-11-23T22:22:11.844Z,16.30
2018-11-23T22:24:41.636Z,17.30
2018-11-23T22:27:11.451Z,17.00
2018-11-23T22:29:41.245Z,15.60
2018-11-23T22:32:11.083Z,17.83
2018-11-23T22:34:40.873Z,15.23
2018-11-23T22:37:10.702Z,15.13
2018-11-23T22:39:40.517Z,16.87
2018-11-23T22:42:10.346Z,15.17
2018-11-23T22:44:40.119Z,16.50
2018-11-23T22:47:09.955Z,15.73
2018-11-23T22:49:39.735Z,17.03
2018-11-23T22:52:09.579Z,15.87
2018-11-23T22:54:39.414Z,15.57
2018-11-23T22:57:11.768Z,17.87
2018-11-23T22:59:39.002Z,17.57
2018-11-23T23:02:08.839Z,16.23
2018-11-23T23:04:38.674Z,18.53
2018-11-23T23:07:08.596Z,15.60
2018-11-23T23:09:38.409Z,16.83
2018-11-23T23:12:08.218Z,16.33
2018-11-23T23:14:37.972Z,16.10
2018-11-23T23:17:07.800Z,16.00
2018-11-23T23:19:37.644Z,17.00
2018-11-23T23:22:07.431Z,15.87
2018-11-23T23:24:37.227Z,15.30
2018-11-23T23:27:07.066Z,15.10
2018-11-23T23:29:36.863Z,15.63
2018-11-23T23:32:06.724Z,15.43
2018-11-23T23:34:36.576Z,16.47
2018-11-23T23:37:06.431Z,16.23
2018-11-23T23:39:36.216Z,18.00
2018-11-23T23:42:06.182Z,15.23
2018-11-23T23:44:35.952Z,18.10
2018-11-23T23:47:05.815Z,17.30
2018-11-23T23:49:35.679Z,15.93
2018-11-23T23:52:05.855Z,17.57
2018-11-23T23:54:35.695Z,16.53
2018-11-23T23:57:05.636Z,16.80
2018-11-23T23:59:35.604Z,16.47
